Asotin, Washington
Current Conditions -  °F | °C
As of 5:56 AM on Friday 24 Oct 2014 (Local Time) from KLWS Reporting Station
Overcast Overcast  
Wind Chill: 50°   Ceiling: 11000
Heat Index: 50°   Visibility: 10mi
Dew Point: 47°   Wind: 3mph
Humidity: 89%   Direction: 120°ESE
Pressure: 30.07"   Gusts: NA
Location:  46.34°N, 117.05°W
Report Text: KLWS 241256Z AUTO 12003KT 10SM SCT055 OVC110 10/08 A3007 RMK AO2 SLP187 T01000083
Loading
Personal Weather Stations






























Interactive Weather Map New forecast layout! Learn more

10-Day Weather Forecast

Advertisements
Track Severe Weather on mobile